| time (UTC) | temp F | wind direction | speed MPH | gust MPH | rain 1hr in | rain 24hr in | rain mn in | humidity % | barometer mb |
| 20260508093042 | 38 | 180 | 2.0 | 5.0 | 0.00 | 0.04 | 0.01 | 92 | 1016.7 |
| 20260508091557 | 38 | 180 | 3.0 | 4.0 | 0.00 | 0.04 | 0.01 | 91 | 1016.5 |
| 20260508090041 | 38 | 180 | 2.0 | 4.0 | 0.00 | 0.04 | 0.01 | 92 | 1016.4 |
| 20260508084541 | 38 | 180 | 2.0 | 4.0 | 0.00 | 0.04 | 0.01 | 91 | 1016.4 |
| 20260508083041 | 38 | 180 | 2.0 | 4.0 | 0.00 | 0.04 | 0.01 | 91 | 1016.4 |
| 20260508081553 | 38 | 180 | 2.0 | 4.0 | 0.00 | 0.04 | 0.01 | 91 | 1016.5 |
| 20260508080034 | 39 | 180 | 1.0 | 3.0 | 0.00 | 0.04 | 0.01 | 91 | 1016.4 |
| 20260508074541 | 39 | 180 | 1.0 | 4.0 | 0.00 | 0.05 | 0.01 | 91 | 1016.3 |
| 20260508073045 | 39 | 180 | 2.0 | 4.0 | 0.00 | 0.05 | 0.01 | 91 | 1016.3 |
| 20260508071541 | 39 | 180 | 1.0 | 3.0 | 0.00 | 0.05 | 0.01 | 91 | 1016.1 |
| 20260508070039 | 39 | 180 | 1.0 | 3.0 | 0.00 | 0.05 | 0.01 | 91 | 1016.1 |
| 20260508064542 | 39 | 180 | 1.0 | 4.0 | 0.00 | 0.05 | 0.01 | 91 | 1016.1 |
| 20260508063038 | 40 | 180 | 1.0 | 4.0 | 0.00 | 0.05 | 0.01 | 91 | 1016.3 |
| 20260508061542 | 40 | 180 | 1.0 | 4.0 | 0.00 | 0.05 | 0.01 | 91 | 1016.3 |
| 20260508060054 | 40 | 180 | 1.0 | 3.0 | 0.00 | 0.05 | 0.01 | 90 | 1016.4 |
| 20260508054613 | 40 | 180 | 1.0 | 2.0 | 0.00 | 0.05 | 0.01 | 90 | 1016.3 |
| 20260508053046 | 41 | 0 | 1.0 | 3.0 | 0.01 | 0.05 | 0.01 | 90 | 1016.2 |
| 20260508051541 | 41 | 180 | 1.0 | 2.0 | 0.01 | 0.05 | 0.01 | 90 | 1016.2 |
| 20260508050040 | 41 | 180 | 1.0 | 3.0 | 0.01 | 0.05 | 0.01 | 90 | 1016.2 |
| 20260508044537 | 42 | 0 | 0.0 | 0.0 | 0.01 | 0.05 | 0.01 | 89 | 1016.2 |
| 20260508043041 | 42 | 0 | 0.0 | 0.0 | 0.00 | 0.04 | 0.00 | 89 | 1016.2 |
| 20260508021743 | 47 | 0 | 0.0 | 0.0 | 0.00 | 0.05 | 0.04 | 83 | 1014.9 |
| 20260508001537 | 55 | 0 | 0.0 | 0.0 | 0.00 | 0.05 | 0.04 | 68 | 1013.1 |
| 20260508000038 | 56 | 0 | 0.0 | 0.0 | 0.00 | 0.05 | 0.04 | 64 | 1012.8 |
| 20260507234543 | 57 | 0 | 0.0 | 1.0 | 0.00 | 0.05 | 0.04 | 62 | 1012.5 |
| 20260507233043 | 59 | 0 | 1.0 | 3.0 | 0.00 | 0.05 | 0.04 | 61 | 1012.4 |
| 20260507231545 | 60 | 0 | 0.0 | 3.0 | 0.00 | 0.05 | 0.04 | 58 | 1012.3 |
| 20260507230043 | 61 | 180 | 3.0 | 8.0 | 0.00 | 0.05 | 0.04 | 46 | 1012.3 |
| 20260507224537 | 61 | 180 | 3.0 | 9.0 | 0.00 | 0.06 | 0.04 | 44 | 1012.1 |
| 20260507221723 | 63 | 0 | 0.0 | 6.0 | 0.00 | 0.06 | 0.04 | 49 | 1011.9 |
| 20260507220054 | 64 | 180 | 4.0 | 12.0 | 0.00 | 0.06 | 0.04 | 42 | 1011.7 |
| 20260507211540 | 62 | 180 | 3.0 | 15.0 | 0.00 | 0.06 | 0.04 | 45 | 1011.3 |
| 20260507210043 | 63 | 180 | 3.0 | 10.0 | 0.00 | 0.06 | 0.04 | 49 | 1011.2 |
| 20260507204538 | 62 | 0 | 1.0 | 9.0 | 0.00 | 0.06 | 0.04 | 47 | 1011.0 |
| 20260507203039 | 62 | 180 | 4.0 | 11.0 | 0.00 | 0.06 | 0.04 | 47 | 1011.1 |
| 20260507201542 | 62 | 180 | 0.0 | 11.0 | 0.00 | 0.06 | 0.04 | 54 | 1011.1 |
| 20260507200034 | 61 | 180 | 5.0 | 8.0 | 0.00 | 0.06 | 0.04 | 55 | 1011.4 |
| 20260507194539 | 62 | 180 | 2.0 | 6.0 | 0.00 | 0.06 | 0.04 | 55 | 1011.5 |
| 20260507190037 | 63 | 180 | 3.0 | 8.0 | 0.01 | 0.06 | 0.04 | 50 | 1012.0 |
| 20260507184535 | 64 | 180 | 3.0 | 9.0 | 0.01 | 0.06 | 0.04 | 49 | 1012.2 |
| 20260507183047 | 63 | 180 | 2.0 | 9.0 | 0.00 | 0.05 | 0.03 | 55 | 1012.3 |
| 20260507181543 | 61 | 180 | 1.0 | 10.0 | 0.00 | 0.05 | 0.03 | 54 | 1012.3 |
| 20260507180050 | 60 | 180 | 2.0 | 8.0 | 0.00 | 0.05 | 0.03 | 54 | 1012.7 |
| 20260507174538 | 61 | 180 | 2.0 | 11.0 | 0.00 | 0.06 | 0.03 | 50 | 1012.6 |
| 20260507173046 | 60 | 180 | 1.0 | 10.0 | 0.00 | 0.06 | 0.03 | 52 | 1013.0 |
| 20260507171553 | 60 | 180 | 2.0 | 6.0 | 0.00 | 0.06 | 0.03 | 55 | 1013.2 |
| 20260507170042 | 59 | 180 | 2.0 | 8.0 | 0.00 | 0.06 | 0.03 | 56 | 1013.3 |
| 20260507164547 | 59 | 180 | 2.0 | 8.0 | 0.00 | 0.06 | 0.03 | 56 | 1013.5 |
| 20260507163047 | 59 | 180 | 3.0 | 8.0 | 0.00 | 0.06 | 0.03 | 55 | 1013.6 |
| 20260507161542 | 59 | 180 | 2.0 | 8.0 | 0.00 | 0.06 | 0.03 | 55 | 1013.7 |
| 20260507154542 | 58 | 180 | 1.0 | 6.0 | 0.00 | 0.07 | 0.03 | 63 | 1013.8 |
| 20260507153043 | 57 | 0 | 1.0 | 3.0 | 0.00 | 0.07 | 0.03 | 65 | 1013.8 |
| 20260507151534 | 57 | 180 | 3.0 | 6.0 | 0.00 | 0.07 | 0.03 | 63 | 1013.8 |
| 20260507150041 | 57 | 0 | 0.0 | 3.0 | 0.01 | 0.07 | 0.03 | 70 | 1013.7 |
| 20260507144538 | 55 | 180 | 2.0 | 4.0 | 0.01 | 0.09 | 0.03 | 72 | 1013.9 |
| 20260507143045 | 55 | 0 | 0.0 | 2.0 | 0.01 | 0.09 | 0.03 | 81 | 1013.9 |
| 20260507141543 | 54 | 0 | 1.0 | 2.0 | 0.01 | 0.09 | 0.03 | 83 | 1014.2 |
| 20260507140037 | 52 | 180 | 0.0 | 1.0 | 0.00 | 0.08 | 0.02 | 90 | 1014.2 |
| 20260507134542 | 52 | 0 | 0.0 | 1.0 | 0.00 | 0.10 | 0.02 | 92 | 1014.3 |
| 20260507133042 | 51 | 0 | 0.0 | 1.0 | 0.00 | 0.10 | 0.02 | 93 | 1014.4 |
| 20260507131540 | 52 | 0 | 0.0 | 0.0 | 0.00 | 0.10 | 0.02 | 93 | 1014.5 |
| 20260507130049 | 51 | 0 | 0.0 | 1.0 | 0.00 | 0.10 | 0.02 | 94 | 1014.4 |
| 20260507124547 | 51 | 0 | 0.0 | 1.0 | 0.00 | 0.12 | 0.02 | 94 | 1014.4 |
| 20260507123042 | 51 | 0 | 0.0 | 1.0 | 0.00 | 0.12 | 0.02 | 94 | 1014.2 |
| 20260507121540 | 50 | 0 | 0.0 | 2.0 | 0.01 | 0.12 | 0.02 | 94 | 1014.3 |
| 20260507120039 | 50 | 0 | 0.0 | 2.0 | 0.01 | 0.12 | 0.02 | 93 | 1014.4 |
| 20260507114546 | 50 | 0 | 0.0 | 2.0 | 0.01 | 0.14 | 0.02 | 94 | 1014.4 |
| 20260507113036 | 49 | 0 | 0.0 | 1.0 | 0.01 | 0.14 | 0.02 | 93 | 1014.3 |
| 20260507111542 | 49 | 0 | 0.0 | 1.0 | 0.00 | 0.13 | 0.01 | 93 | 1014.2 |
| 20260507110045 | 49 | 0 | 0.0 | 1.0 | 0.00 | 0.13 | 0.01 | 93 | 1014.1 |
| 20260507104549 | 50 | 180 | 1.0 | 2.0 | 0.00 | 0.15 | 0.01 | 93 | 1013.9 |
| 20260507103037 | 50 | 180 | 0.0 | 2.0 | 0.00 | 0.15 | 0.01 | 93 | 1013.7 |